Home > Products > Valid Products > TAF

000
FTUS44 KLIX 270523
TAFMSY
TAF
KMSY 270523Z 2706/2806 13003KT P6SM FEW040 FEW250
     FM271200 12004KT P6SM SCT090
      TEMPO 2716/2720 VRB30KT 2SM TSRA BKN025CB
     FM280000 15006KT P6SM BKN200=



000
FTUS44 KLIX 270523
TAFBTR
TAF
KBTR 270523Z 2706/2806 00000KT P6SM SKC
     FM271200 VRB03KT P6SM BKN008
     FM271400 12004KT P6SM SCT035
      TEMPO 2718/2721 VRB30KT 2SM TSRA BKN025CB
     FM280000 15005KT P6SM BKN200
     FM280300 00000KT P6SM BKN150=



000
FTUS44 KLIX 270523
TAFNEW
TAF
KNEW 270523Z 2706/2806 14004KT P6SM SKC
     FM271200 12005KT P6SM SCT030
      TEMPO 2717/2720 VRB35KT 2SM TSRA BKN025CB
     FM280000 14008KT P6SM BKN200
     FM280500 13004KT P6SM BKN150=



000
FTUS44 KLIX 270523
TAFGPT
TAF
KGPT 270523Z 2706/2806 00000KT P6SM BKN015
     FM271200 13004KT P6SM VCTS SCT020CB BKN150
     FM271600 15008KT P6SM SCT035
      TEMPO 2718/2721 VRB30KT 2SM TSRA BKN025CB
     FM280000 14005KT P6SM BKN200=



000
FTUS44 KLIX 270523
TAFMCB
TAF
KMCB 270523Z 2706/2806 00000KT P6SM SKC
      TEMPO 2710/2713 4SM BR BKN003
     FM271300 16005KT P6SM SCT035
      TEMPO 2719/2722 VRB30KT 3SM TSRA BKN025CB
     FM280000 18004KT P6SM BKN150
     FM280200 00000KT P6SM BKN130=



000
FTUS44 KLIX 270523
TAFNEW
TAF
KNEW 270523Z 2706/2806 14004KT P6SM SKC
     FM271200 12005KT P6SM SCT030
      TEMPO 2717/2720 VRB35KT 2SM TSRA BKN025CB
     FM280000 14008KT P6SM BKN200
     FM280500 13004KT P6SM BKN150=



000
FTUS44 KLIX 262338
TAFNEW
TAF
KNEW 262338Z 2700/2724 10008KT P6SM FEW120
     FM271300 15008KT P6SM SCT040
      TEMPO 2717/2720 VRB35KT 2SM TSRA BKN025CB=



000
FTUS44 KLIX 262338
TAFBTR
TAF
KBTR 262338Z 2700/2724 07006KT P6SM FEW100
     FM271100 00000KT P6SM SCT025
      TEMPO 2711/2714 BKN025
     FM271700 12006KT P6SM BKN050
      TEMPO 2718/2722 VRB30KT 2SM TSRA BKN035CB=



000
FTUS44 KLIX 262338
TAFMCB
TAF
KMCB 262338Z 2700/2724 17003KT P6SM FEW120
     FM271100 00000KT P6SM SCT025
     FM271500 16004KT P6SM SCT040
      TEMPO 2718/2722 VRB30KT 2SM TSRA BKN035CB=



000
FTUS44 KLIX 262338
TAFMSY
TAF
KMSY 262338Z 2700/2724 15005KT P6SM FEW100
     FM271200 14006KT P6SM BKN025
     FM271800 14010KT P6SM SCT040
      TEMPO 2718/2722 VRB30KT 2SM TSRA BKN035CB=



000
FTUS44 KLIX 262338
TAFNEW
TAF
KNEW 262338Z 2700/2724 10008KT P6SM FEW120
     FM271300 15008KT P6SM SCT040
      TEMPO 2717/2720 VRB35KT 2SM TSRA BKN025CB=



000
FTUS44 KLIX 262338
TAFGPT
TAF
KGPT 262338Z 2700/2724 11007KT P6SM FEW100
     FM271600 14008KT P6SM BKN025
     FM271700 15011KT P6SM BKN040
      TEMPO 2717/2720 18020G30KT 2SM TSRA BKN035CB=



000
FTUS44 KLIX 262338
TAFNEW
TAF
KNEW 262338Z 2700/2724 10008KT P6SM FEW120
     FM271300 15008KT P6SM SCT040
      TEMPO 2717/2720 VRB35KT 2SM TSRA BKN025CB=



000
FTUS44 KLIX 261720
TAFMCB
TAF
KMCB 261720Z 2618/2718 VRB05KT P6SM BKN110
     FM270000 17007KT P6SM VCTS SCT030CB BKN090
     FM270800 00000KT P6SM BKN008
     FM271400 VRB03KT P6SM BKN025
     FM271500 VRB03KT P6SM BKN040=



000
FTUS44 KLIX 261720
TAFNEW
TAF
KNEW 261720Z 2618/2718 14010KT P6SM BKN150
     FM270000 15010KT P6SM BKN200
     FM270900 15005KT P6SM BKN025
     FM271400 13007KT P6SM BKN040=



000
FTUS44 KLIX 261720
TAFNEW
TAF
KNEW 261720Z 2618/2718 14010KT P6SM BKN150
     FM270000 15010KT P6SM BKN200
     FM270900 15005KT P6SM BKN025
     FM271400 13007KT P6SM BKN040=



000
FTUS44 KLIX 261720
TAFMSY
TAF
KMSY 261720Z 2618/2718 15010KT P6SM BKN150
     FM270800 15004KT P6SM SCT040
     FM270900 14004KT P6SM BKN020
     FM271400 14006KT P6SM BKN035=



000
FTUS44 KLIX 261720
TAFBTR
TAF
KBTR 261720Z 2618/2718 15007KT P6SM BKN150
     FM270000 16007KT P6SM VCTS SCT030CB BKN090
     FM270800 VRB03KT P6SM BKN025
     FM270900 VRB03KT P6SM BKN010
     FM271500 13004KT P6SM BKN040=



000
FTUS44 KLIX 261720
TAFMCB
TAF
KMCB 261720Z 2618/2718 VRB05KT P6SM BKN110
     FM270000 17007KT P6SM VCTS SCT030CB BKN090
     FM270800 00000KT P6SM BKN008
     FM271400 VRB03KT P6SM BKN025
     FM271500 VRB03KT P6SM BKN040=



000
FTUS44 KLIX 261720
TAFNEW
TAF
KNEW 261720Z 2618/2718 14010KT P6SM BKN150
     FM270000 15010KT P6SM BKN200
     FM270900 15005KT P6SM BKN025
     FM271400 13007KT P6SM BKN040=



000
FTUS44 KLIX 261720
TAFGPT
TAF
KGPT 261720Z 2618/2718 14010KT P6SM BKN120
     FM270000 16009KT P6SM VCTS SCT030CB BKN090
     FM270900 15006KT P6SM BKN025
     FM271400 15007KT P6SM BKN040=



000
FTUS44 KLIX 261720
TAFNEW
TAF
KNEW 261720Z 2618/2718 14010KT P6SM BKN150
     FM270000 15010KT P6SM BKN200
     FM270900 15005KT P6SM BKN025
     FM271400 13007KT P6SM BKN040=



000
FTUS44 KLIX 261720
TAFMSY
TAF
KMSY 261720Z 2618/2718 15010KT P6SM BKN150
     FM270800 15004KT P6SM SCT040
     FM270900 14004KT P6SM BKN020
     FM271400 14006KT P6SM BKN035=



000
FTUS44 KLIX 261720
TAFBTR
TAF
KBTR 261720Z 2618/2718 15007KT P6SM BKN150
     FM270000 16007KT P6SM VCTS SCT030CB BKN090
     FM270800 VRB03KT P6SM BKN025
     FM270900 VRB03KT P6SM BKN010
     FM271500 13004KT P6SM BKN040=



000
FTUS44 KLIX 261139
TAFMSY
TAF
KMSY 261139Z 2612/2712 34005KT 5SM RA SCT020 OVC080
     FM261400 28007KT P6SM OVC050
     FM261800 16011KT P6SM VCTS SCT030CB BKN070
     FM270000 16009KT P6SM SCT050 BKN140
     FM270900 14004KT P6SM BKN025=



000
FTUS44 KLIX 261139
TAFGPT
TAF
KGPT 261139Z 2612/2712 01007KT 5SM -RA SCT020 BKN035 OVC070
     FM261800 16012KT P6SM VCTS SCT035CB BKN050 OVC090
     FM270300 15007KT P6SM SCT050 BKN090=



000
FTUS44 KLIX 261139
TAFBTR
TAF
KBTR 261139Z 2612/2712 34004KT 5SM RA OVC040
     FM261400 27005KT P6SM OVC035
     FM261800 17007KT P6SM VCTS SCT035CB BKN090
     FM270300 14005KT P6SM SCT040 BKN080
     FM270800 VRB03KT P6SM BKN015=



000
FTUS44 KLIX 261139
TAFMSY
TAF
KMSY 261139Z 2612/2712 34005KT 5SM RA SCT020 OVC080
     FM261400 28007KT P6SM OVC050
     FM261800 16011KT P6SM VCTS SCT030CB BKN070
     FM270000 16009KT P6SM SCT050 BKN140
     FM270900 14004KT P6SM BKN025=



000
FTUS44 KLIX 261139
TAFNEW
TAF
KNEW 261139Z 2612/2712 36020KT 5SM -RA OVC060
     FM261400 05007KT P6SM SCT020 OVC050
     FM261800 16012KT P6SM VCTS SCT030CB OVC070
     FM270000 15010KT P6SM BKN110
     FM271000 14005KT P6SM BKN025=



000
FTUS44 KLIX 261139
TAFNEW
TAF
KNEW 261139Z 2612/2712 36020KT 5SM -RA OVC060
     FM261400 05007KT P6SM SCT020 OVC050
     FM261800 16012KT P6SM VCTS SCT030CB OVC070
     FM270000 15010KT P6SM BKN110
     FM271000 14005KT P6SM BKN025=



000
FTUS44 KLIX 261139
TAFMCB
TAF
KMCB 261139Z 2612/2712 34004KT 5SM RA OVC045
     FM261500 24006KT P6SM OVC050
     FM261800 18008KT P6SM VCTS SCT035CB BKN070
     FM270300 16005KT P6SM SCT040 BKN090
     FM270900 00000KT P6SM BKN010=



000
FTUS44 KLIX 261139
TAFNEW
TAF
KNEW 261139Z 2612/2712 36020KT 5SM -RA OVC060
     FM261400 05007KT P6SM SCT020 OVC050
     FM261800 16012KT P6SM VCTS SCT030CB OVC070
     FM270000 15010KT P6SM BKN110
     FM271000 14005KT P6SM BKN025=



000
FTUS44 KLIX 261139
TAFBTR
TAF
KBTR 261139Z 2612/2712 34004KT 5SM RA OVC040
     FM261400 27005KT P6SM OVC035
     FM261800 17007KT P6SM VCTS SCT035CB BKN090
     FM270300 14005KT P6SM SCT040 BKN080
     FM270800 VRB03KT P6SM BKN015=



000
FTUS44 KLIX 261139
TAFMCB
TAF
KMCB 261139Z 2612/2712 34004KT 5SM RA OVC045
     FM261500 24006KT P6SM OVC050
     FM261800 18008KT P6SM VCTS SCT035CB BKN070
     FM270300 16005KT P6SM SCT040 BKN090
     FM270900 00000KT P6SM BKN010=



000
FTUS44 KLIX 261139
TAFGPT
TAF
KGPT 261139Z 2612/2712 01007KT 5SM -RA SCT020 BKN035 OVC070
     FM261800 16012KT P6SM VCTS SCT035CB BKN050 OVC090
     FM270300 15007KT P6SM SCT050 BKN090=



000
FTUS44 KLIX 261139
TAFNEW
TAF
KNEW 261139Z 2612/2712 36020KT 5SM -RA OVC060
     FM261400 05007KT P6SM SCT020 OVC050
     FM261800 16012KT P6SM VCTS SCT030CB OVC070
     FM270000 15010KT P6SM BKN110
     FM271000 14005KT P6SM BKN025=



000
FTUS44 KLIX 260930 AAB
TAFNEW
TAF AMD
KNEW 260930Z 2610/2706 32035G45KT 2SM TSRA BKN015CB OVC025
     FM261030 31012KT 5SM -RA SCT015 BKN040 OVC080
     FM261600 18008KT P6SM SCT030 BKN080=



000
FTUS44 KLIX 260930 AAB
TAFNEW
TAF AMD
KNEW 260930Z 2610/2706 32035G45KT 2SM TSRA BKN015CB OVC025
     FM261030 31012KT 5SM -RA SCT015 BKN040 OVC080
     FM261600 18008KT P6SM SCT030 BKN080=



000
FTUS44 KLIX 260930 AAB
TAFNEW
TAF AMD
KNEW 260930Z 2610/2706 32035G45KT 2SM TSRA BKN015CB OVC025
     FM261030 31012KT 5SM -RA SCT015 BKN040 OVC080
     FM261600 18008KT P6SM SCT030 BKN080=



000
FTUS44 KLIX 260927 AAB
TAFGPT
TAF AMD
KGPT 260927Z 2609/2706 16008KT P6SM SCT015 BKN025
     FM261100 31025G35KT 2SM TSRA BKN015CB OVC030
     FM261300 30007KT 5SM -RA SCT015 BKN040 OVC070
     FM261800 16008KT P6SM VCTS SCT030CB BKN080=



000
FTUS44 KLIX 260921 AAB
TAFMCB
TAF AMD
KMCB 260921Z 2609/2706 30006KT 5SM -RA SCT030 BKN050 OVC100
     FM261400 16008KT P6SM VCTS BKN035CB=



000
FTUS44 KLIX 260920 AAB
TAFMSY
TAF AMD
KMSY 260920Z 2609/2706 32020G30KT 2SM TSRA OVC015CB
     FM261000 35010KT 5SM -RA SCT015 BKN040 OVC070
     FM261800 15012KT P6SM VCTS BKN040CB=



000
FTUS44 KLIX 260918 AAB
TAFBTR
TAF AMD
KBTR 260918Z 2609/2706 34005KT 5SM -RA BKN050 OVC080
     FM261400 16012KT P6SM BKN040 OVC090
     FM261800 16010KT P6SM VCTS BKN040CB=



000
FTUS44 KLIX 260714 AAA
TAFNEW
TAF AMD
KNEW 260714Z 2607/2706 12012KT P6SM FEW025 BKN050 BKN090
     FM260830 16009KT P6SM TSRA BKN020CB OVC090
     FM261000 15012KT P6SM BKN025=



000
FTUS44 KLIX 260714 AAA
TAFGPT
TAF AMD
KGPT 260714Z 2607/2706 12010KT P6SM SCT024 BKN150
     FM261000 15008KT P6SM TSRA BKN025CB OVC050
     FM261100 16007KT P6SM VCTS OVC025CB=



000
FTUS44 KLIX 260714 AAA
TAFBTR
TAF AMD
KBTR 260714Z 2607/2706 32015KT 1SM TS BKN015CB BKN020 OVC070
     FM260800 16012KT P6SM BKN040 OVC090
     FM261800 16010KT P6SM VCTS BKN040CB=



000
FTUS44 KLIX 260714 AAA
TAFNEW
TAF AMD
KNEW 260714Z 2607/2706 12012KT P6SM FEW025 BKN050 BKN090
     FM260830 16009KT P6SM TSRA BKN020CB OVC090
     FM261000 15012KT P6SM BKN025=



000
FTUS44 KLIX 260714 AAA
TAFMCB
TAF AMD
KMCB 260714Z 2607/2706 14010KT P6SM OVC110
     FM260730 15005KT P6SM TSRA BKN020CB
     FM260830 16007KT P6SM VCTS OVC025CB
     FM261400 16008KT P6SM VCTS BKN035CB=



000
FTUS44 KLIX 260714 AAA
TAFMSY
TAF AMD
KMSY 260714Z 2607/2706 19008KT P6SM VCTS SCT005 BKN012CB OVC026
     FM260800 15010KT P6SM TSRA BKN030CB OVC090
     FM261000 13007KT P6SM BKN030
     FM261800 15012KT P6SM VCTS BKN040CB=



000
FTUS44 KLIX 260714 AAA
TAFMCB
TAF AMD
KMCB 260714Z 2607/2706 14010KT P6SM OVC110
     FM260730 15005KT P6SM TSRA BKN020CB
     FM260830 16007KT P6SM VCTS OVC025CB
     FM261400 16008KT P6SM VCTS BKN035CB=



000
FTUS44 KLIX 260714 AAA
TAFMSY
TAF AMD
KMSY 260714Z 2607/2706 19008KT P6SM VCTS SCT005 BKN012CB OVC026
     FM260800 15010KT P6SM TSRA BKN030CB OVC090
     FM261000 13007KT P6SM BKN030
     FM261800 15012KT P6SM VCTS BKN040CB=



000
FTUS44 KLIX 260714 AAA
TAFGPT
TAF AMD
KGPT 260714Z 2607/2706 12010KT P6SM SCT024 BKN150
     FM261000 15008KT P6SM TSRA BKN025CB OVC050
     FM261100 16007KT P6SM VCTS OVC025CB=



000
FTUS44 KLIX 260714 AAA
TAFNEW
TAF AMD
KNEW 260714Z 2607/2706 12012KT P6SM FEW025 BKN050 BKN090
     FM260830 16009KT P6SM TSRA BKN020CB OVC090
     FM261000 15012KT P6SM BKN025=



000
FTUS44 KLIX 260714 AAA
TAFBTR
TAF AMD
KBTR 260714Z 2607/2706 32015KT 1SM TS BKN015CB BKN020 OVC070
     FM260800 16012KT P6SM BKN040 OVC090
     FM261800 16010KT P6SM VCTS BKN040CB=



000
FTUS44 KLIX 260714 AAA
TAFNEW
TAF AMD
KNEW 260714Z 2607/2706 12012KT P6SM FEW025 BKN050 BKN090
     FM260830 16009KT P6SM TSRA BKN020CB OVC090
     FM261000 15012KT P6SM BKN025=



000
FTUS44 KLIX 260558
TAFMCB
TAF
KMCB 260558Z 2606/2706 14010KT P6SM OVC110
     FM260700 15005KT P6SM TSRA BKN020CB
     FM261100 16007KT P6SM VCTS OVC025CB
     FM261400 16008KT P6SM VCTS BKN035CB=



000
FTUS44 KLIX 260558
TAFBTR
TAF
KBTR 260558Z 2606/2706 14006KT P6SM BKN080
     FM260700 16012KT P6SM VCTS BKN040CB
     FM261400 13007KT P6SM VCSH BKN030
     FM261800 16010KT P6SM VCTS BKN040CB=



000
FTUS44 KLIX 260558
TAFNEW
TAF
KNEW 260558Z 2606/2706 12012KT 3/4SM -RA VCTS BKN040CB BKN050
      OVC060
     FM260730 16009KT P6SM TSRA BKN020CB OVC090
     FM261600 15012KT P6SM VCTS BKN025CB=



000
FTUS44 KLIX 260558
TAFGPT
TAF
KGPT 260558Z 2606/2706 12010KT P6SM SCT024 BKN150
     FM261000 15008KT P6SM VCSH OVC025
     FM261700 15012KT P6SM VCTS BKN035CB=



000
FTUS44 KLIX 260558
TAFBTR
TAF
KBTR 260558Z 2606/2706 14006KT P6SM BKN080
     FM260700 16012KT P6SM VCTS BKN040CB
     FM261400 13007KT P6SM VCSH BKN030
     FM261800 16010KT P6SM VCTS BKN040CB=



000
FTUS44 KLIX 260558
TAFMCB
TAF
KMCB 260558Z 2606/2706 14010KT P6SM OVC110
     FM260700 15005KT P6SM TSRA BKN020CB
     FM261100 16007KT P6SM VCTS OVC025CB
     FM261400 16008KT P6SM VCTS BKN035CB=



000
FTUS44 KLIX 260558
TAFGPT
TAF
KGPT 260558Z 2606/2706 12010KT P6SM SCT024 BKN150
     FM261000 15008KT P6SM VCSH OVC025
     FM261700 15012KT P6SM VCTS BKN035CB=



000
FTUS44 KLIX 260558
TAFMSY
TAF
KMSY 260558Z 2606/2706 19008KT 5SM -TSRA BR SCT005 BKN012CB OVC026
     FM260630 16006KT P6SM BKN060
     FM260730 15010KT P6SM VCSH BKN030
     FM261800 15012KT P6SM VCTS BKN040CB=



000
FTUS44 KLIX 260558
TAFNEW
TAF
KNEW 260558Z 2606/2706 12012KT 3/4SM -RA VCTS BKN040CB BKN050
      OVC060
     FM260730 16009KT P6SM TSRA BKN020CB OVC090
     FM261600 15012KT P6SM VCTS BKN025CB=



000
FTUS44 KLIX 260558
TAFNEW
TAF
KNEW 260558Z 2606/2706 12012KT 3/4SM -RA VCTS BKN040CB BKN050
      OVC060
     FM260730 16009KT P6SM TSRA BKN020CB OVC090
     FM261600 15012KT P6SM VCTS BKN025CB=



000
FTUS44 KLIX 260558
TAFMSY
TAF
KMSY 260558Z 2606/2706 19008KT 5SM -TSRA BR SCT005 BKN012CB OVC026
     FM260630 16006KT P6SM BKN060
     FM260730 15010KT P6SM VCSH BKN030
     FM261800 15012KT P6SM VCTS BKN040CB=



000
FTUS44 KLIX 252336
TAFMCB
TAF
KMCB 252336Z 2600/2624 14010KT P6SM OVC110
     FM260500 14007KT P6SM SCT025 BKN110
     FM260900 15005KT P6SM BKN015
     FM261100 16007KT P6SM VCTS OVC025CB
     FM261400 16008KT P6SM VCTS BKN035CB=



000
FTUS44 KLIX 252336
TAFNEW
TAF
KNEW 252336Z 2600/2624 12012KT 3/4SM -RA VCTS BKN040CB BKN050
      OVC060
     FM260400 16009KT P6SM VCSH BKN020 OVC090
     FM261600 15012KT P6SM VCTS BKN025CB=



000
FTUS44 KLIX 252336
TAFMCB
TAF
KMCB 252336Z 2600/2624 14010KT P6SM OVC110
     FM260500 14007KT P6SM SCT025 BKN110
     FM260900 15005KT P6SM BKN015
     FM261100 16007KT P6SM VCTS OVC025CB
     FM261400 16008KT P6SM VCTS BKN035CB=



000
FTUS44 KLIX 252336
TAFGPT
TAF
KGPT 252336Z 2600/2624 12010KT P6SM SCT024 BKN150
     FM261000 15008KT P6SM VCSH OVC025
     FM261700 15012KT P6SM VCTS BKN035CB=



000
FTUS44 KLIX 252336
TAFBTR
TAF
KBTR 252336Z 2600/2624 12010G21KT P6SM FEW080
     FM260200 13007KT P6SM VCSH SCT070
     FM260500 14006KT P6SM BKN080
     FM260900 15007KT P6SM BKN025
     FM261400 13007KT P6SM VCSH BKN030
     FM261800 16010KT P6SM VCTS BKN040CB=



000
FTUS44 KLIX 252336
TAFMSY
TAF
KMSY 252336Z 2600/2624 28008KT 1 1/2SM +TSRA BR SCT026CB BKN040
      OVC100
     FM260300 16006KT P6SM BKN060
     FM261400 15010KT P6SM VCSH BKN030
     FM261800 15012KT P6SM VCTS BKN040CB=



000
FTUS44 KLIX 252336
TAFGPT
TAF
KGPT 252336Z 2600/2624 12010KT P6SM SCT024 BKN150
     FM261000 15008KT P6SM VCSH OVC025
     FM261700 15012KT P6SM VCTS BKN035CB=



000
FTUS44 KLIX 252336
TAFBTR
TAF
KBTR 252336Z 2600/2624 12010G21KT P6SM FEW080
     FM260200 13007KT P6SM VCSH SCT070
     FM260500 14006KT P6SM BKN080
     FM260900 15007KT P6SM BKN025
     FM261400 13007KT P6SM VCSH BKN030
     FM261800 16010KT P6SM VCTS BKN040CB=



000
FTUS44 KLIX 252336
TAFMSY
TAF
KMSY 252336Z 2600/2624 28008KT 1 1/2SM +TSRA BR SCT026CB BKN040
      OVC100
     FM260300 16006KT P6SM BKN060
     FM261400 15010KT P6SM VCSH BKN030
     FM261800 15012KT P6SM VCTS BKN040CB=



000
FTUS44 KLIX 252336
TAFNEW
TAF
KNEW 252336Z 2600/2624 12012KT 3/4SM -RA VCTS BKN040CB BKN050
      OVC060
     FM260400 16009KT P6SM VCSH BKN020 OVC090
     FM261600 15012KT P6SM VCTS BKN025CB=



000
FTUS44 KLIX 252336
TAFNEW
TAF
KNEW 252336Z 2600/2624 12012KT 3/4SM -RA VCTS BKN040CB BKN050
      OVC060
     FM260400 16009KT P6SM VCSH BKN020 OVC090
     FM261600 15012KT P6SM VCTS BKN025CB=



000
FTUS44 KLIX 252336
TAFNEW
TAF
KNEW 252336Z 2600/2624 12012KT 3/4SM -RA VCTS BKN040CB BKN050
      OVC060
     FM260400 16009KT P6SM VCSH BKN020 OVC090
     FM261600 15012KT P6SM VCTS BKN025CB=



000
FTUS44 KLIX 252211 AAB
TAFNEW
TAF AMD
KNEW 252211Z 2522/2618 09012KT P6SM VCTS SCT025CB BKN090
      TEMPO 2522/2524 VRB20G35KT 2SM TSRA SCT008 BKN025CB
     FM260000 14014KT P6SM VCSH SCT025 BKN110
     FM260600 16011KT P6SM SCT015 BKN035
     FM261500 16011KT P6SM VCSH BKN025=



000
FTUS44 KLIX 252211 AAB
TAFNEW
TAF AMD
KNEW 252211Z 2522/2618 09012KT P6SM VCTS SCT025CB BKN090
      TEMPO 2522/2524 VRB20G35KT 2SM TSRA SCT008 BKN025CB
     FM260000 14014KT P6SM VCSH SCT025 BKN110
     FM260600 16011KT P6SM SCT015 BKN035
     FM261500 16011KT P6SM VCSH BKN025=



000
FTUS44 KLIX 252209 AAB
TAFMSY
TAF AMD
KMSY 252209Z 2522/2618 VRB04KT P6SM VCTS SCT025CB BKN090
      TEMPO 2522/2524 VRB20G35KT 1SM TSRA SCT005 BKN025CB
     FM260000 14012KT P6SM VCSH SCT030 BKN150
     FM260500 15010KT P6SM SCT090
     FM261200 15007KT P6SM SCT020 BKN050
     FM261500 15010KT P6SM VCSH BKN030=



000
FTUS44 KLIX 252209 AAB
TAFMSY
TAF AMD
KMSY 252209Z 2522/2618 VRB04KT P6SM VCTS SCT025CB BKN090
      TEMPO 2522/2524 VRB20G35KT 1SM TSRA SCT005 BKN025CB
     FM260000 14012KT P6SM VCSH SCT030 BKN150
     FM260500 15010KT P6SM SCT090
     FM261200 15007KT P6SM SCT020 BKN050
     FM261500 15010KT P6SM VCSH BKN030=



000
FTUS44 KLIX 252208 AAA
TAFBTR
TAF AMD
KBTR 252208Z 2522/2618 13014KT P6SM VCTS SCT030CB BKN080
      TEMPO 2522/2524 VRB20G30KT 2SM TSRA BKN030CB
     FM260000 15009KT P6SM VCSH BKN030
     FM260300 15009KT P6SM BKN080
     FM260900 15007KT P6SM BKN015
     FM261500 16009KT P6SM VCSH BKN025=



000
FTUS44 KLIX 252113 AAA
TAFGPT
TAF AMD
KGPT 252113Z 2521/2618 12010KT P6SM VCTS SCT030CB BKN090
     FM260000 14014KT P6SM VCSH SCT030 BKN100
     FM260900 15005KT P6SM BKN030
     FM261500 16012KT P6SM VCSH BKN030=



000
FTUS44 KLIX 251905 AAA
TAFMCB
TAF AMD
KMCB 251905Z 2519/2618 15010KT P6SM VCTS SCT030CB BKN090
      TEMPO 2519/2521 VRB20G35KT 2SM TSRA BKN025CB
     FM260000 14009KT P6SM VCSH SCT030 BKN150
     FM260600 16005KT P6SM BKN015
     FM261600 17010KT P6SM VCSH BKN025=



000
FTUS44 KLIX 251904 AAA
TAFNEW
TAF AMD
KNEW 251904Z 2519/2618 16012KT P6SM VCTS BKN025CB BKN090
      TEMPO 2519/2520 VRB20G35KT 1SM TSRA SCT008 BKN025CB
     FM260000 14014KT P6SM VCSH SCT025 BKN110
     FM260600 16011KT P6SM SCT015 BKN035
     FM261500 16011KT P6SM VCSH BKN025=



000
FTUS44 KLIX 251904 AAA
TAFNEW
TAF AMD
KNEW 251904Z 2519/2618 16012KT P6SM VCTS BKN025CB BKN090
      TEMPO 2519/2520 VRB20G35KT 1SM TSRA SCT008 BKN025CB
     FM260000 14014KT P6SM VCSH SCT025 BKN110
     FM260600 16011KT P6SM SCT015 BKN035
     FM261500 16011KT P6SM VCSH BKN025=



000
FTUS44 KLIX 251903 AAA
TAFMSY
TAF AMD
KMSY 251903Z 2519/2618 14013KT P6SM VCTS SCT025CB BKN090
      TEMPO 2519/2520 VRB20G35KT 1SM TSRA SCT005 BKN025CB
     FM260000 14012KT P6SM VCSH SCT030 BKN150
     FM260500 15010KT P6SM SCT090
     FM261200 15007KT P6SM SCT020 BKN050
     FM261500 15010KT P6SM VCSH BKN030=



000
FTUS44 KLIX 251725
TAFBTR
TAF
KBTR 251725Z 2518/2618 17011KT P6SM VCTS BKN030CB
     FM260000 15009KT P6SM VCSH BKN030
     FM260300 15009KT P6SM BKN080
     FM260900 15007KT P6SM BKN015
     FM261500 16009KT P6SM VCSH BKN025=



000
FTUS44 KLIX 251725
TAFMSY
TAF
KMSY 251725Z 2518/2618 14013KT P6SM VCTS SCT025CB BKN090
     FM260000 14012KT P6SM VCSH SCT030 BKN150
     FM260500 15010KT P6SM SCT090
     FM261200 15007KT P6SM SCT020 BKN050
     FM261500 15010KT P6SM VCSH BKN030=



000
FTUS44 KLIX 251725
TAFNEW
TAF
KNEW 251725Z 2518/2618 16012KT P6SM VCTS BKN025CB BKN090
     FM260000 14014KT P6SM VCSH SCT025 BKN110
     FM260600 16011KT P6SM SCT015 BKN035
     FM261500 16011KT P6SM VCSH BKN025=



000
FTUS44 KLIX 251725
TAFMCB
TAF
KMCB 251725Z 2518/2618 15010KT P6SM VCTS SCT030CB BKN090
     FM260000 14009KT P6SM VCSH SCT030 BKN150
     FM260600 16005KT P6SM BKN015
     FM261600 17010KT P6SM VCSH BKN025=



000
FTUS44 KLIX 251725
TAFGPT
TAF
KGPT 251725Z 2518/2618 16013KT P6SM VCTS SCT030CB BKN090
     FM260000 14014KT P6SM VCSH SCT030 BKN100
     FM260900 15005KT P6SM BKN030
     FM261500 16012KT P6SM VCSH BKN030=



000
FTUS44 KLIX 251725
TAFNEW
TAF
KNEW 251725Z 2518/2618 16012KT P6SM VCTS BKN025CB BKN090
     FM260000 14014KT P6SM VCSH SCT025 BKN110
     FM260600 16011KT P6SM SCT015 BKN035
     FM261500 16011KT P6SM VCSH BKN025=



000
FTUS44 KLIX 251621 AAA
TAFNEW
TAF AMD
KNEW 251621Z 2516/2612 15013KT P6SM VCTS BKN025CB
     FM260000 14014KT P6SM BKN050=



000
FTUS44 KLIX 251621 AAA
TAFNEW
TAF AMD
KNEW 251621Z 2516/2612 15013KT P6SM VCTS BKN025CB
     FM260000 14014KT P6SM BKN050=



000
FTUS44 KLIX 251619 AAC
TAFGPT
TAF AMD
KGPT 251619Z 2516/2612 17010KT P6SM VCTS BKN030CB
     FM252200 15011KT P6SM OVC070=



000
FTUS44 KLIX 251618 AAB
TAFMCB
TAF AMD
KMCB 251618Z 2516/2612 18008KT P6SM VCTS BKN025CB
     FM260000 15010KT P6SM BKN080
     FM260300 15009KT P6SM BKN025=



000
FTUS44 KLIX 251617 AAA
TAFMSY
TAF AMD
KMSY 251617Z 2516/2612 14013KT P6SM VCTS SCT025CB BKN090
     FM260200 14010KT P6SM BKN030=



000
FTUS44 KLIX 251615 AAA
TAFBTR
TAF AMD
KBTR 251615Z 2516/2612 14012G18KT P6SM VCTS SCT015CB BKN040
     FM260200 14010KT P6SM BKN030=



000
FTUS44 KLIX 251615 AAA
TAFBTR
TAF AMD
KBTR 251615Z 2516/2612 14012G18KT P6SM VCTS SCT015CB BKN040
     FM260200 14010KT P6SM BKN030=



000
FTUS44 KLIX 251505 AAA
TAFMCB
TAF AMD
KMCB 251505Z 2515/2612 VRB03KT P6SM BKN008 OVC015
     FM251700 18008KT P6SM VCSH FEW015 BKN080
     FM251900 15008KT P6SM VCTS OVC030CB
     FM260000 15010KT P6SM BKN080
     FM260300 15009KT P6SM BKN025=



000
FTUS44 KLIX 251505 AAA
TAFMCB
TAF AMD
KMCB 251505Z 2515/2612 VRB03KT P6SM BKN008 OVC015
     FM251700 18008KT P6SM VCSH FEW015 BKN080
     FM251900 15008KT P6SM VCTS OVC030CB
     FM260000 15010KT P6SM BKN080
     FM260300 15009KT P6SM BKN025=



000
FTUS44 KLIX 251503 AAB
TAFGPT
TAF AMD
KGPT 251503Z 2515/2612 17008KT P6SM VCTS BKN015CB
      TEMPO 2515/2517 VRB10G20KT 2SM TSRA OVC010CB
     FM252200 15011KT P6SM OVC070=



000
FTUS44 KLIX 251503 AAB
TAFGPT
TAF AMD
KGPT 251503Z 2515/2612 17008KT P6SM VCTS BKN015CB
      TEMPO 2515/2517 VRB10G20KT 2SM TSRA OVC010CB
     FM252200 15011KT P6SM OVC070=



000
FTUS44 KLIX 251359 AAA
TAFGPT
TAF AMD
KGPT 251359Z 2514/2612 15011KT P6SM VCTS OVC015CB
      TEMPO 2514/2515 VRB10G20KT 2SM TSRA OVC010CB
     FM252200 15011KT P6SM OVC070=



000
FTUS44 KLIX 251153
TAFMCB
TAF
KMCB 251153Z 2512/2612 VRB03KT P6SM VCSH FEW015 BKN080
     FM251900 15008KT P6SM VCTS OVC030CB
     FM260000 15010KT P6SM BKN080
     FM260300 15009KT P6SM BKN025=



000
FTUS44 KLIX 251153
TAFNEW
TAF
KNEW 251153Z 2512/2612 16007KT P6SM VCSH BKN200
     FM251900 14013KT P6SM VCTS OVC030CB
     FM260000 14014KT P6SM BKN050=



000
FTUS44 KLIX 251153
TAFBTR
TAF
KBTR 251153Z 2512/2612 14006KT P6SM OVC250
     FM251900 14012G18KT P6SM VCTS SCT015CB BKN040
     FM260200 14010KT P6SM BKN030=



000
FTUS44 KLIX 251153
TAFGPT
TAF
KGPT 251153Z 2512/2612 15011KT P6SM VCTS OVC015CB
     FM252200 15011KT P6SM OVC070=



000
FTUS44 KLIX 251153
TAFMSY
TAF
KMSY 251153Z 2512/2612 17006KT P6SM VCSH FEW010 SCT100 OVC200
     FM251900 14013KT P6SM VCTS OVC025CB
     FM260200 14010KT P6SM BKN030=



000
FTUS44 KLIX 251153
TAFBTR
TAF
KBTR 251153Z 2512/2612 14006KT P6SM OVC250
     FM251900 14012G18KT P6SM VCTS SCT015CB BKN040
     FM260200 14010KT P6SM BKN030=



000
FTUS44 KLIX 251153
TAFMCB
TAF
KMCB 251153Z 2512/2612 VRB03KT P6SM VCSH FEW015 BKN080
     FM251900 15008KT P6SM VCTS OVC030CB
     FM260000 15010KT P6SM BKN080
     FM260300 15009KT P6SM BKN025=



000
FTUS44 KLIX 251153
TAFNEW
TAF
KNEW 251153Z 2512/2612 16007KT P6SM VCSH BKN200
     FM251900 14013KT P6SM VCTS OVC030CB
     FM260000 14014KT P6SM BKN050=



000
FTUS44 KLIX 251153
TAFGPT
TAF
KGPT 251153Z 2512/2612 15011KT P6SM VCTS OVC015CB
     FM252200 15011KT P6SM OVC070=



000
FTUS44 KLIX 251153
TAFNEW
TAF
KNEW 251153Z 2512/2612 16007KT P6SM VCSH BKN200
     FM251900 14013KT P6SM VCTS OVC030CB
     FM260000 14014KT P6SM BKN050=



000
FTUS44 KLIX 251153
TAFMSY
TAF
KMSY 251153Z 2512/2612 17006KT P6SM VCSH FEW010 SCT100 OVC200
     FM251900 14013KT P6SM VCTS OVC025CB
     FM260200 14010KT P6SM BKN030=



000
FTUS44 KLIX 251153
TAFNEW
TAF
KNEW 251153Z 2512/2612 16007KT P6SM VCSH BKN200
     FM251900 14013KT P6SM VCTS OVC030CB
     FM260000 14014KT P6SM BKN050=



000
FTUS44 KLIX 251036 AAA
TAFGPT
TAF AMD
KGPT 251036Z 2511/2606 15012KT 2SM TSRA OVC015CB
     FM251200 14009KT P6SM SHRA SCT020 OVC035
     FM260000 15011KT P6SM OVC070=



000
FTUS44 KLIX 250918 AAB
TAFBTR
TAF AMD
KBTR 250918Z 2509/2606 14006KT P6SM SCT004
     FM251300 14007KT 6SM SHRA SCT015 BKN040
     FM260200 14012KT P6SM SHRA BKN025
     FM260400 14010KT P6SM SHRA BKN015=



000
FTUS44 KLIX 250918 AAB
TAFBTR
TAF AMD
KBTR 250918Z 2509/2606 14006KT P6SM SCT004
     FM251300 14007KT 6SM SHRA SCT015 BKN040
     FM260200 14012KT P6SM SHRA BKN025
     FM260400 14010KT P6SM SHRA BKN015=



000
FTUS44 KLIX 250824 AAA
TAFBTR
TAF AMD
KBTR 250824Z 2508/2606 14006KT P6SM BKN005
     FM251300 14007KT 6SM SHRA SCT015 BKN040
     FM260200 14012KT P6SM SHRA BKN025
     FM260400 14010KT P6SM SHRA BKN015=



000
FTUS44 KLIX 250824 AAA
TAFBTR
TAF AMD
KBTR 250824Z 2508/2606 14006KT P6SM BKN005
     FM251300 14007KT 6SM SHRA SCT015 BKN040
     FM260200 14012KT P6SM SHRA BKN025
     FM260400 14010KT P6SM SHRA BKN015=



000
FTUS44 KLIX 250520
TAFMCB
TAF
KMCB 250520Z 2506/2606 00000KT P6SM VCTS SCT040CB BKN060 OVC110
      TEMPO 2507/2510 VRB15G25KT 3SM TSRA SCT020CB BKN040
     FM251200 15007KT 6SM SHRA OVC025
     FM251300 15008KT P6SM SHRA OVC040
     FM260000 15010KT P6SM BKN080
     FM260300 15009KT P6SM BKN025=



000
FTUS44 KLIX 250520
TAFBTR
TAF
KBTR 250520Z 2506/2606 14006KT P6SM VCSH FEW025 SCT040 OVC080
     FM251200 14007KT 6SM SHRA SCT020 BKN040
     FM260200 14012KT P6SM SHRA BKN025
     FM260400 14010KT P6SM SHRA BKN015=



000
FTUS44 KLIX 250520
TAFNEW
TAF
KNEW 250520Z 2506/2606 18007KT P6SM VCSH FEW023 SCT035 BKN090
     FM251200 14011KT P6SM SHRA BKN025
     FM251700 14013KT P6SM SHRA OVC050
     FM260000 14014KT P6SM BKN050=



000
FTUS44 KLIX 250520
TAFMSY
TAF
KMSY 250520Z 2506/2606 14006KT P6SM VCTS SCT025CB BKN130 OVC160
      TEMPO 2507/2509 VRB15G25KT 3SM TSRA SCT020CB BKN040
     FM251200 14010KT P6SM SHRA SCT020 OVC035
     FM251400 14011KT P6SM SHRA OVC025
     FM251700 14013KT P6SM SHRA OVC035=



000
FTUS44 KLIX 250520
TAFNEW
TAF
KNEW 250520Z 2506/2606 18007KT P6SM VCSH FEW023 SCT035 BKN090
     FM251200 14011KT P6SM SHRA BKN025
     FM251700 14013KT P6SM SHRA OVC050
     FM260000 14014KT P6SM BKN050=



000
FTUS44 KLIX 250520
TAFGPT
TAF
KGPT 250520Z 2506/2606 15012KT P6SM VCSH FEW015 BKN023 BKN045
     FM251200 14009KT P6SM SHRA SCT020 OVC035
     FM260000 15011KT P6SM OVC070=



000
FTUS44 KLIX 250112 AAA
TAFMSY
TAF AMD
KMSY 250112Z 2501/2524 15013KT P6SM SCT030 BKN250
      TEMPO 2502/2505 VRB20G35KT 2SM +TSRA BKN025CB
     FM250500 15007KT P6SM SCT020 BKN080
     FM251500 15010KT P6SM VCSH SCT020 BKN040
     FM251800 15010KT P6SM VCTS BKN035CB=



000
FTUS44 KLIX 250112 AAA
TAFMSY
TAF AMD
KMSY 250112Z 2501/2524 15013KT P6SM SCT030 BKN250
      TEMPO 2502/2505 VRB20G35KT 2SM +TSRA BKN025CB
     FM250500 15007KT P6SM SCT020 BKN080
     FM251500 15010KT P6SM VCSH SCT020 BKN040
     FM251800 15010KT P6SM VCTS BKN035CB=



000
FTUS44 KLIX 242336
TAFMSY
TAF
KMSY 242336Z 2500/2524 17013G20KT P6SM SCT030 BKN250
      TEMPO 2502/2505 VRB20G35KT 2SM +TSRA BKN025CB
     FM250500 15007KT P6SM SCT020 BKN080
     FM251500 15010KT P6SM VCSH SCT020 BKN040
     FM251800 15010KT P6SM VCTS BKN035CB=



000
FTUS44 KLIX 242336
TAFNEW
TAF
KNEW 242336Z 2500/2524 15015KT P6SM SCT025 BKN040
      TEMPO 2502/2505 VRB20G35KT 2SM +TSRA BKN020CB
     FM250600 15009KT P6SM SCT025 BKN090
     FM251200 15007KT P6SM BKN025 BKN060
     FM251500 15011KT P6SM VCSH BKN025
     FM251800 14011KT P6SM VCTS BKN030CB=



000
FTUS44 KLIX 242336
TAFNEW
TAF
KNEW 242336Z 2500/2524 15015KT P6SM SCT025 BKN040
      TEMPO 2502/2505 VRB20G35KT 2SM +TSRA BKN020CB
     FM250600 15009KT P6SM SCT025 BKN090
     FM251200 15007KT P6SM BKN025 BKN060
     FM251500 15011KT P6SM VCSH BKN025
     FM251800 14011KT P6SM VCTS BKN030CB=



000
FTUS44 KLIX 242336
TAFBTR
TAF
KBTR 242336Z 2500/2524 17012KT P6SM SCT040
      TEMPO 2500/2502 VRB20G35KT 2SM +TSRA OVC020CB
     FM250600 15006KT P6SM BKN070
     FM251200 12005KT P6SM BKN020
     FM251500 14007KT P6SM VCSH SCT020 BKN040
     FM251800 14011KT P6SM VCTS BKN035CB=



000
FTUS44 KLIX 242336
TAFMCB
TAF
KMCB 242336Z 2500/2524 VRB04KT P6SM VCTS SCT035CB BKN080
      TEMPO 2502/2505 VRB20G35KT 2SM TSRA BKN020CB
     FM250500 15005KT P6SM BKN035
     FM251200 15006KT P6SM BKN015
     FM251500 15008KT P6SM VCSH BKN025
     FM251800 14009KT P6SM VCTS BKN035CB=



000
FTUS44 KLIX 242336
TAFGPT
TAF
KGPT 242336Z 2500/2524 15015G22KT P6SM VCTS SCT025CB BKN060
     FM250300 15009KT P6SM SCT025 BKN080
     FM250600 16008KT P6SM SCT020 BKN050
      TEMPO 2506/2508 3SM TSRA BKN020CB
     FM251500 15010KT P6SM VCSH BKN025
     FM251800 15009KT P6SM VCTS BKN030CB=



000
FTUS44 KLIX 242336
TAFBTR
TAF
KBTR 242336Z 2500/2524 17012KT P6SM SCT040
      TEMPO 2500/2502 VRB20G35KT 2SM +TSRA OVC020CB
     FM250600 15006KT P6SM BKN070
     FM251200 12005KT P6SM BKN020
     FM251500 14007KT P6SM VCSH SCT020 BKN040
     FM251800 14011KT P6SM VCTS BKN035CB=



000
FTUS44 KLIX 242336
TAFGPT
TAF
KGPT 242336Z 2500/2524 15015G22KT P6SM VCTS SCT025CB BKN060
     FM250300 15009KT P6SM SCT025 BKN080
     FM250600 16008KT P6SM SCT020 BKN050
      TEMPO 2506/2508 3SM TSRA BKN020CB
     FM251500 15010KT P6SM VCSH BKN025
     FM251800 15009KT P6SM VCTS BKN030CB=



000
FTUS44 KLIX 242336
TAFNEW
TAF
KNEW 242336Z 2500/2524 15015KT P6SM SCT025 BKN040
      TEMPO 2502/2505 VRB20G35KT 2SM +TSRA BKN020CB
     FM250600 15009KT P6SM SCT025 BKN090
     FM251200 15007KT P6SM BKN025 BKN060
     FM251500 15011KT P6SM VCSH BKN025
     FM251800 14011KT P6SM VCTS BKN030CB=



000
FTUS44 KLIX 242336
TAFMSY
TAF
KMSY 242336Z 2500/2524 17013G20KT P6SM SCT030 BKN250
      TEMPO 2502/2505 VRB20G35KT 2SM +TSRA BKN025CB
     FM250500 15007KT P6SM SCT020 BKN080
     FM251500 15010KT P6SM VCSH SCT020 BKN040
     FM251800 15010KT P6SM VCTS BKN035CB=



000
FTUS44 KLIX 242336
TAFMCB
TAF
KMCB 242336Z 2500/2524 VRB04KT P6SM VCTS SCT035CB BKN080
      TEMPO 2502/2505 VRB20G35KT 2SM TSRA BKN020CB
     FM250500 15005KT P6SM BKN035
     FM251200 15006KT P6SM BKN015
     FM251500 15008KT P6SM VCSH BKN025
     FM251800 14009KT P6SM VCTS BKN035CB=



000
FTUS44 KLIX 242132 AAA
TAFGPT
TAF AMD
KGPT 242132Z 2422/2518 15016KT P6SM VCSH BKN025
     FM250300 15012KT P6SM SCT030 BKN080
     FM251500 15011KT P6SM VCSH BKN025=



000
FTUS44 KLIX 242131 AAB
TAFBTR
TAF AMD
KBTR 242131Z 2422/2518 17016KT P6SM VCTS SCT035CB
     FM250000 15010KT P6SM VCSH SCT030 BKN070
     FM250300 14007KT P6SM BKN070
     FM251100 11007KT P6SM BKN025
     FM251500 12009KT P6SM SHRA BKN040=



000
FTUS44 KLIX 241819 AAA
TAFBTR
TAF AMD
KBTR 241819Z 2418/2518 17016KT P6SM VCTS BKN025CB
     FM250000 15010KT P6SM VCSH SCT030 BKN070
     FM250300 14007KT P6SM BKN070
     FM251100 11007KT P6SM BKN025
     FM251500 12009KT P6SM SHRA BKN040=



000
FTUS44 KLIX 241721
TAFGPT
TAF
KGPT 241721Z 2418/2518 15016KT P6SM VCSH BKN025
     FM242000 15017KT P6SM VCTS BKN030CB
     FM250300 15012KT P6SM SCT030 BKN080
     FM251500 15011KT P6SM VCSH BKN025=



000
FTUS44 KLIX 241721
TAFBTR
TAF
KBTR 241721Z 2418/2518 16016KT P6SM VCTS BKN030CB
     FM250000 15010KT P6SM VCSH SCT030 BKN070
     FM250300 14007KT P6SM BKN070
     FM251100 11007KT P6SM BKN025
     FM251500 12009KT P6SM SHRA BKN040=



000
FTUS44 KLIX 241721
TAFMSY
TAF
KMSY 241721Z 2418/2518 15016KT P6SM VCTS BKN040CB BKN250
     FM250100 15011KT P6SM VCSH SCT030 BKN090
     FM250300 14009KT P6SM BKN090
     FM251400 13008KT P6SM VCSH BKN040=



000
FTUS44 KLIX 241721
TAFMCB
TAF
KMCB 241721Z 2418/2518 16014KT P6SM VCTS BKN035CB
     FM250000 15010KT P6SM VCSH SCT030 BKN090
     FM250300 15007KT P6SM SCT030 BKN250
     FM251500 14007KT P6SM VCSH BKN025=



000
FTUS44 KLIX 241721
TAFNEW
TAF
KNEW 241721Z 2418/2518 15016KT P6SM VCTS BKN040CB
     FM250000 15012KT P6SM VCSH SCT030 BKN090
     FM250300 15011KT P6SM BKN090
     FM251400 15010KT P6SM VCSH BKN030=



000
FTUS44 KLIX 241601 AAB
TAFBTR
TAF AMD
KBTR 241601Z 2416/2512 15012KT P6SM VCSH BKN025
     FM241800 14014G20KT P6SM VCTS BKN035CB=



000
FTUS44 KLIX 241513 AAA
TAFMCB
TAF AMD
KMCB 241513Z 2415/2512 15010KT P6SM VCSH BKN025
     FM241700 15014G21KT P6SM VCTS BKN035CB=



000
FTUS44 KLIX 241513 AAA
TAFMCB
TAF AMD
KMCB 241513Z 2415/2512 15010KT P6SM VCSH BKN025
     FM241700 15014G21KT P6SM VCTS BKN035CB=



000
FTUS44 KLIX 241512 AAA
TAFMSY
TAF AMD
KMSY 241512Z 2415/2512 15014KT P6SM BKN025
     FM241700 15014G22KT P6SM VCTS BKN035CB=



000
FTUS44 KLIX 241512 CCA
TAFBTR
TAF COR
KBTR 241512Z 2415/2512 12012KT P6SM VCSH BKN025
     FM241700 14014G20KT P6SM VCTS BKN035CB=



000
FTUS44 KLIX 241511 AAA
TAFBTR
TAF AMD
KBTR 241511Z 2415/2512 12012KT P6SM BKN025
     FM241700 14014G20KT P6SM VCTS BKN035CB=



000
FTUS44 KLIX 241404 AAA
TAFNEW
TAF AMD
KNEW 241404Z 2414/2512 15017KT P6SM BKN025
     FM241700 15017G25KT P6SM VCTS BKN035CB
     FM250300 16014KT P6SM VCSH OVC030=



000
FTUS44 KLIX 241404 AAA
TAFNEW
TAF AMD
KNEW 241404Z 2414/2512 15017KT P6SM BKN025
     FM241700 15017G25KT P6SM VCTS BKN035CB
     FM250300 16014KT P6SM VCSH OVC030=



000
FTUS44 KLIX 241142
TAFMCB
TAF
KMCB 241142Z 2412/2512 14004KT 2SM BR OVC004
     FM241300 11005KT 4SM BR BKN010
     FM241400 12007KT P6SM BKN025
     FM241700 15014G21KT P6SM VCTS BKN035CB=



000
FTUS44 KLIX 241142
TAFMSY
TAF
KMSY 241142Z 2412/2512 13007KT P6SM FEW020 SCT250
     FM241400 15012KT P6SM BKN025
     FM241700 15014G22KT P6SM VCTS BKN035CB=



000
FTUS44 KLIX 241142
TAFNEW
TAF
KNEW 241142Z 2412/2512 13011KT P6SM FEW020 SCT250
     FM241500 15017KT P6SM BKN025
     FM241700 15017G25KT P6SM VCTS BKN035CB
     FM250300 16014KT P6SM VCSH OVC030=



000
FTUS44 KLIX 241142
TAFBTR
TAF
KBTR 241142Z 2412/2512 12005KT P6SM SCT250
     FM241500 14014G20KT P6SM VCTS BKN035CB=



000
FTUS44 KLIX 241142
TAFNEW
TAF
KNEW 241142Z 2412/2512 13011KT P6SM FEW020 SCT250
     FM241500 15017KT P6SM BKN025
     FM241700 15017G25KT P6SM VCTS BKN035CB
     FM250300 16014KT P6SM VCSH OVC030=



000
FTUS44 KLIX 241142
TAFMCB
TAF
KMCB 241142Z 2412/2512 14004KT 2SM BR OVC004
     FM241300 11005KT 4SM BR BKN010
     FM241400 12007KT P6SM BKN025
     FM241700 15014G21KT P6SM VCTS BKN035CB=



000
FTUS44 KLIX 241142
TAFBTR
TAF
KBTR 241142Z 2412/2512 12005KT P6SM SCT250
     FM241500 14014G20KT P6SM VCTS BKN035CB=



000
FTUS44 KLIX 241142
TAFGPT
TAF
KGPT 241142Z 2412/2512 13013KT P6SM VCSH SCT015
     FM241400 14017G24KT P6SM BKN030=



000
FTUS44 KLIX 241142
TAFNEW
TAF
KNEW 241142Z 2412/2512 13011KT P6SM FEW020 SCT250
     FM241500 15017KT P6SM BKN025
     FM241700 15017G25KT P6SM VCTS BKN035CB
     FM250300 16014KT P6SM VCSH OVC030=



000
FTUS44 KLIX 241142
TAFNEW
TAF
KNEW 241142Z 2412/2512 13011KT P6SM FEW020 SCT250
     FM241500 15017KT P6SM BKN025
     FM241700 15017G25KT P6SM VCTS BKN035CB
     FM250300 16014KT P6SM VCSH OVC030=



000
FTUS44 KLIX 241142
TAFGPT
TAF
KGPT 241142Z 2412/2512 13013KT P6SM VCSH SCT015
     FM241400 14017G24KT P6SM BKN030=



000
FTUS44 KLIX 241142
TAFMSY
TAF
KMSY 241142Z 2412/2512 13007KT P6SM FEW020 SCT250
     FM241400 15012KT P6SM BKN025
     FM241700 15014G22KT P6SM VCTS BKN035CB=



    US Dept of Commerce
    National Oceanic and Atmospheric Administration
    National Weather Service
    1325 East West Highway
    Silver Spring, MD 20910
    Page Author: NWS Internet Services Team
Disclaimer
Information Quality
Credits
Glossary
Privacy Policy
Freedom of Information Act (FOIA)
About Us
Career Opportunities